Time,TemperatureF,DewpointF,PressureIn,WindDirection,WindDirectionDegrees,WindSpeedMPH,WindSpeedGustMPH,Humidity,HourlyPrecipIn,Conditions,Clouds,dailyrainin,SoftwareType,DateUTC
2013-05-22 00:00:00,46.0,44.1,29.64,North,5,0.0,0.0,93,0.00,,OVC010,0.10,VWS V14.01,2013-05-22 05:00:00,
2013-05-22 00:10:00,45.8,44.2,29.64,North,360,0.0,0.0,94,0.00,,OVC008,0.00,VWS V14.01,2013-05-22 05:10:00,
2013-05-22 00:15:00,45.8,43.9,29.65,North,360,0.0,0.0,93,0.00,,OVC008,0.00,VWS V14.01,2013-05-22 05:15:00,
2013-05-22 00:20:00,45.8,44.2,29.65,ENE,66,0.0,0.0,94,0.00,,OVC008,0.00,VWS V14.01,2013-05-22 05:20:00,
2013-05-22 00:25:00,46.0,44.4,29.65,ENE,66,0.0,0.0,94,0.00,,OVC008,0.00,VWS V14.01,2013-05-22 05:25:00,
2013-05-22 00:30:00,46.0,44.4,29.65,NE,46,0.0,0.0,94,0.00,,OVC008,0.00,VWS V14.01,2013-05-22 05:30:00,
2013-05-22 00:35:00,46.0,44.4,29.65,NE,46,0.0,0.0,94,0.00,,OVC008,0.00,VWS V14.01,2013-05-22 05:35:00,
2013-05-22 00:40:00,46.0,44.4,29.65,North,5,0.0,0.0,94,0.00,,OVC008,0.00,VWS V14.01,2013-05-22 05:40:00,
2013-05-22 00:45:00,46.0,44.1,29.65,NE,50,0.0,0.0,93,0.00,,OVC008,0.00,VWS V14.01,2013-05-22 05:45:00,
2013-05-22 00:50:00,46.0,44.1,29.65,ENE,63,0.0,0.0,93,0.00,,OVC008,0.00,VWS V14.01,2013-05-22 05:50:00,
2013-05-22 00:55:00,46.0,44.4,29.65,NE,38,0.0,0.0,94,0.00,,OVC008,0.00,VWS V14.01,2013-05-22 05:55:00,
2013-05-22 01:00:00,46.0,44.4,29.65,North,355,0.0,0.0,94,0.00,,OVC008,0.00,VWS V14.01,2013-05-22 06:00:00,
2013-05-22 01:10:00,45.8,43.9,29.65,ENE,59,0.0,0.0,93,0.00,,OVC006,0.00,VWS V14.01,2013-05-22 06:10:00,
2013-05-22 01:15:00,45.8,43.9,29.65,NE,55,0.0,0.0,93,0.00,,OVC006,0.00,VWS V14.01,2013-05-22 06:15:00,
2013-05-22 01:20:00,45.7,43.8,29.65,ENE,63,0.0,0.0,93,0.00,,OVC006,0.00,VWS V14.01,2013-05-22 06:20:00,
2013-05-22 01:25:00,45.7,43.8,29.65,ENE,68,0.0,0.0,93,0.00,,OVC006,0.00,VWS V14.01,2013-05-22 06:25:00,
2013-05-22 01:30:00,45.7,43.8,29.65,ENE,71,0.0,0.0,93,0.00,,OVC006,0.00,VWS V14.01,2013-05-22 06:30:00,
2013-05-22 01:35:00,45.7,43.8,29.65,ENE,71,0.0,0.0,93,0.00,,OVC006,0.00,VWS V14.01,2013-05-22 06:35:00,
2013-05-22 01:40:00,45.7,43.8,29.65,ENE,69,0.0,0.0,93,0.00,,OVC006,0.00,VWS V14.01,2013-05-22 06:40:00,
2013-05-22 01:45:00,45.5,43.6,29.65,ENE,67,0.0,0.0,93,0.00,,OVC006,0.00,VWS V14.01,2013-05-22 06:45:00,
2013-05-22 01:50:00,45.4,43.5,29.65,ENE,66,0.0,0.0,93,0.00,,OVC006,0.00,VWS V14.01,2013-05-22 06:50:00,
2013-05-22 01:55:00,45.2,43.3,29.65,NE,55,0.0,0.0,93,0.00,,OVC006,0.00,VWS V14.01,2013-05-22 06:55:00,
2013-05-22 02:00:00,45.2,43.3,29.65,ENE,67,0.0,0.0,93,0.00,,OVC006,0.00,VWS V14.01,2013-05-22 07:00:00,
2013-05-22 02:05:00,45.2,43.3,29.65,East,81,0.0,0.0,93,0.00,,OVC006,0.00,VWS V14.01,2013-05-22 07:05:00,
2013-05-22 02:10:00,45.2,43.3,29.65,East,80,0.0,0.0,93,0.00,,OVC006,0.00,VWS V14.01,2013-05-22 07:10:00,
2013-05-22 02:15:00,45.1,43.2,29.64,NNE,26,0.0,0.0,93,0.00,,OVC006,0.00,VWS V14.01,2013-05-22 07:15:00,
2013-05-22 02:20:00,45.1,43.2,29.64,NNE,25,0.0,0.0,93,0.00,,OVC006,0.00,VWS V14.01,2013-05-22 07:20:00,
2013-05-22 02:30:00,44.9,43.0,29.64,ENE,63,0.0,0.0,93,0.00,,OVC006,0.00,VWS V14.01,2013-05-22 07:30:00,
2013-05-22 02:35:00,44.9,43.0,29.64,North,350,0.0,0.0,93,0.00,,OVC006,0.00,VWS V14.01,2013-05-22 07:35:00,
2013-05-22 02:40:00,44.8,42.9,29.64,NNE,26,0.0,0.0,93,0.00,,OVC006,0.00,VWS V14.01,2013-05-22 07:40:00,
2013-05-22 02:45:00,44.8,42.9,29.64,NNE,28,0.0,0.0,93,0.00,,OVC006,0.00,VWS V14.01,2013-05-22 07:45:00,
2013-05-22 02:55:00,44.8,42.9,29.64,NNE,20,0.0,0.0,93,0.00,,OVC006,0.00,VWS V14.01,2013-05-22 07:55:00,
2013-05-22 03:00:00,44.8,42.9,29.64,NNE,18,0.0,0.0,93,0.00,,OVC006,0.00,VWS V14.01,2013-05-22 08:00:00,
2013-05-22 03:05:00,44.6,42.7,29.64,NNW,346,0.0,0.0,93,0.00,,OVC006,0.00,VWS V14.01,2013-05-22 08:05:00,
2013-05-22 03:10:00,44.6,42.7,29.64,NNW,343,0.0,0.0,93,0.00,,OVC006,0.00,VWS V14.01,2013-05-22 08:10:00,
2013-05-22 03:15:00,44.3,42.4,29.65,NE,42,0.0,0.0,93,0.00,,OVC006,0.00,VWS V14.01,2013-05-22 08:15:00,
2013-05-22 03:20:00,44.3,42.4,29.65,NNW,348,0.0,0.0,93,0.00,,OVC006,0.00,VWS V14.01,2013-05-22 08:20:00,
2013-05-22 03:30:00,44.2,42.3,29.65,NNW,346,0.0,0.0,93,0.00,,OVC006,0.00,VWS V14.01,2013-05-22 08:30:00,
2013-05-22 03:35:00,44.2,42.3,29.65,North,355,0.0,0.0,93,0.00,,OVC006,0.00,VWS V14.01,2013-05-22 08:35:00,
2013-05-22 03:45:00,44.2,42.3,29.65,NNW,346,0.0,0.0,93,0.00,,OVC006,0.00,VWS V14.01,2013-05-22 08:45:00,
2013-05-22 03:50:00,44.2,42.3,29.65,NNW,346,0.0,0.0,93,0.00,,OVC006,0.00,VWS V14.01,2013-05-22 08:50:00,
2013-05-22 03:55:00,44.2,42.3,29.65,NNE,27,0.0,0.0,93,0.00,,OVC006,0.00,VWS V14.01,2013-05-22 08:55:00,
2013-05-22 04:00:00,44.1,42.2,29.65,ENE,69,0.0,0.0,93,0.00,,OVC006,0.00,VWS V14.01,2013-05-22 09:00:00,
2013-05-22 04:05:00,44.1,42.2,29.65,NE,42,0.0,0.0,93,0.00,,OVC006,0.00,VWS V14.01,2013-05-22 09:05:00,
2013-05-22 04:10:00,44.1,42.2,29.65,NE,38,0.0,0.0,93,0.00,,OVC006,0.00,VWS V14.01,2013-05-22 09:10:00,
2013-05-22 04:15:00,44.1,42.2,29.66,NNW,342,0.0,0.0,93,0.00,,OVC006,0.00,VWS V14.01,2013-05-22 09:15:00,
2013-05-22 04:20:00,44.1,42.2,29.66,ENE,71,0.0,0.0,93,0.00,,OVC006,0.00,VWS V14.01,2013-05-22 09:20:00,
2013-05-22 04:25:00,43.9,42.0,29.66,NNE,28,0.0,0.0,93,0.00,,OVC006,0.00,VWS V14.01,2013-05-22 09:25:00,
2013-05-22 04:30:00,44.1,42.2,29.66,ENE,59,0.0,0.0,93,0.00,,OVC006,0.00,VWS V14.01,2013-05-22 09:30:00,
2013-05-22 04:35:00,43.9,42.0,29.66,ENE,76,0.0,0.0,93,0.00,,OVC006,0.00,VWS V14.01,2013-05-22 09:35:00,
2013-05-22 04:40:00,43.9,42.0,29.66,North,5,0.0,0.0,93,0.00,,OVC006,0.00,VWS V14.01,2013-05-22 09:40:00,
2013-05-22 04:45:00,43.9,42.0,29.66,NE,52,0.0,0.0,93,0.00,,OVC006,0.00,VWS V14.01,2013-05-22 09:45:00,
2013-05-22 04:50:00,44.1,42.2,29.66,North,355,0.0,0.0,93,0.00,,OVC006,0.00,VWS V14.01,2013-05-22 09:50:00,
2013-05-22 04:55:00,44.1,42.2,29.66,NE,37,0.0,0.0,93,0.00,,OVC006,0.00,VWS V14.01,2013-05-22 09:55:00,
2013-05-22 05:00:00,44.1,42.2,29.67,NE,38,0.0,0.0,93,0.00,,OVC006,0.00,VWS V14.01,2013-05-22 10:00:00,
2013-05-22 05:05:00,44.2,42.3,29.67,NE,37,0.0,0.0,93,0.00,,OVC006,0.00,VWS V14.01,2013-05-22 10:05:00,
2013-05-22 05:10:00,44.2,42.3,29.67,NE,37,0.0,0.0,93,0.00,,OVC006,0.00,VWS V14.01,2013-05-22 10:10:00,
2013-05-22 05:15:00,44.2,42.3,29.66,NE,55,0.0,0.0,93,0.00,,OVC006,0.00,VWS V14.01,2013-05-22 10:15:00,
2013-05-22 05:20:00,44.2,42.3,29.66,ENE,60,0.0,0.0,93,0.00,,OVC006,0.00,VWS V14.01,2013-05-22 10:20:00,
2013-05-22 05:30:00,44.3,42.4,29.66,ENE,62,0.0,0.0,93,0.00,,OVC006,0.00,VWS V14.01,2013-05-22 10:30:00,
2013-05-22 05:35:00,44.3,42.4,29.66,ENE,71,0.0,0.0,93,0.00,,OVC006,0.00,VWS V14.01,2013-05-22 10:35:00,
2013-05-22 05:40:00,44.5,42.6,29.66,ENE,69,0.0,0.0,93,0.00,,OVC006,0.00,VWS V14.01,2013-05-22 10:40:00,
2013-05-22 05:45:00,44.5,42.6,29.66,ENE,64,0.0,0.0,93,0.00,,OVC006,0.00,VWS V14.01,2013-05-22 10:45:00,
2013-05-22 05:55:00,44.5,42.6,29.66,ENE,70,0.0,0.0,93,0.00,,OVC006,0.00,VWS V14.01,2013-05-22 10:55:00,
2013-05-22 06:00:00,44.5,42.6,29.66,NE,54,0.0,0.0,93,0.00,,OVC006,0.00,VWS V14.01,2013-05-22 11:00:00,
2013-05-22 06:10:00,44.6,42.7,29.66,ENE,63,0.0,0.0,93,0.00,,,0.00,VWS V14.01,2013-05-22 11:10:00,
2013-05-22 06:15:00,44.5,42.6,29.66,East,83,0.0,0.0,93,0.00,,-RA,0.00,VWS V14.01,2013-05-22 11:15:00,
2013-05-22 06:20:00,44.5,42.6,29.66,ENE,62,0.0,0.0,93,0.00,,-RA,0.00,VWS V14.01,2013-05-22 11:20:00,
2013-05-22 06:25:00,44.5,42.6,29.66,ENE,74,0.0,0.0,93,0.00,,-RA,0.00,VWS V14.01,2013-05-22 11:25:00,
2013-05-22 06:35:00,44.5,42.6,29.66,ENE,69,0.0,0.0,93,0.00,,,0.00,VWS V14.01,2013-05-22 11:35:00,
2013-05-22 06:40:00,44.6,42.7,29.66,ENE,68,0.0,0.0,93,0.00,,,0.00,VWS V14.01,2013-05-22 11:40:00,
2013-05-22 06:45:00,44.8,42.9,29.66,NNE,27,0.0,0.0,93,0.00,,,0.00,VWS V14.01,2013-05-22 11:45:00,
2013-05-22 06:50:00,44.8,42.9,29.66,North,360,0.0,0.0,93,0.00,,,0.00,VWS V14.01,2013-05-22 11:50:00,
2013-05-22 06:55:00,44.9,43.0,29.66,ENE,63,0.0,0.0,93,0.00,,,0.00,VWS V14.01,2013-05-22 11:55:00,
2013-05-22 07:00:00,44.9,43.0,29.66,NE,56,0.0,0.0,93,0.00,,,0.00,VWS V14.01,2013-05-22 12:00:00,
2013-05-22 07:10:00,45.1,43.2,29.66,ENE,61,0.0,0.0,93,0.00,,-RA,0.00,VWS V14.01,2013-05-22 12:10:00,
2013-05-22 07:15:00,45.1,43.2,29.66,ENE,67,0.0,0.0,93,0.00,,-RA,0.00,VWS V14.01,2013-05-22 12:15:00,
2013-05-22 07:20:00,45.1,43.2,29.66,ENE,69,0.0,0.0,93,0.00,,-RA,0.00,VWS V14.01,2013-05-22 12:20:00,
2013-05-22 07:25:00,45.2,43.3,29.66,ENE,71,0.0,0.0,93,0.00,,-RA,0.00,VWS V14.01,2013-05-22 12:25:00,
2013-05-22 07:30:00,45.2,43.3,29.66,ENE,69,0.0,0.0,93,0.00,,-RA,0.00,VWS V14.01,2013-05-22 12:30:00,
2013-05-22 07:35:00,45.2,43.3,29.66,North,350,0.0,0.0,93,0.00,,-RA,0.00,VWS V14.01,2013-05-22 12:35:00,
2013-05-22 07:45:00,45.4,43.5,29.66,NE,55,0.0,0.0,93,0.00,,,0.00,VWS V14.01,2013-05-22 12:45:00,
2013-05-22 07:50:00,45.4,43.5,29.66,ENE,69,0.0,0.0,93,0.00,,,0.00,VWS V14.01,2013-05-22 12:50:00,
2013-05-22 08:00:00,45.8,43.9,29.66,ENE,58,0.0,0.0,93,0.00,,,0.00,VWS V14.01,2013-05-22 13:00:00,
2013-05-22 08:05:00,45.8,43.9,29.66,ENE,78,0.0,0.0,93,0.00,,-RA,0.00,VWS V14.01,2013-05-22 13:05:00,
2013-05-22 08:15:00,46.2,44.3,29.67,ENE,63,0.0,0.0,93,0.00,,-RA,0.00,VWS V14.01,2013-05-22 13:15:00,
2013-05-22 08:20:00,46.2,44.3,29.67,North,11,0.0,0.0,93,0.00,,-RA,0.00,VWS V14.01,2013-05-22 13:20:00,
2013-05-22 08:25:00,46.4,44.2,29.67,ENE,70,0.0,0.0,92,0.00,,-RA,0.00,VWS V14.01,2013-05-22 13:25:00,
2013-05-22 08:30:00,46.4,44.2,29.67,ENE,76,0.0,0.0,92,0.00,,-RA,0.00,VWS V14.01,2013-05-22 13:30:00,
2013-05-22 08:35:00,46.5,44.3,29.67,ENE,57,0.0,0.0,92,0.00,,-RA,0.00,VWS V14.01,2013-05-22 13:35:00,
2013-05-22 08:40:00,46.7,44.5,29.67,ENE,59,0.0,0.0,92,0.00,,-RA,0.00,VWS V14.01,2013-05-22 13:40:00,
2013-05-22 08:45:00,46.7,44.5,29.67,ENE,64,0.0,0.0,92,0.00,,-RA,0.00,VWS V14.01,2013-05-22 13:45:00,
2013-05-22 08:50:00,47.0,44.8,29.67,NNE,19,0.0,0.0,92,0.00,,-RA,0.00,VWS V14.01,2013-05-22 13:50:00,
2013-05-22 09:00:00,47.1,44.6,29.67,NE,44,0.0,0.0,91,0.00,,-RA,0.00,VWS V14.01,2013-05-22 14:00:00,
2013-05-22 09:05:00,47.4,45.2,29.67,North,355,0.0,0.0,92,0.00,,OVC006,0.00,VWS V14.01,2013-05-22 14:05:00,
2013-05-22 09:10:00,47.3,44.8,29.67,ENE,73,0.0,0.0,91,0.00,,OVC006,0.00,VWS V14.01,2013-05-22 14:10:00,
2013-05-22 09:15:00,47.4,44.9,29.67,NNW,337,0.0,0.0,91,0.00,,OVC006,0.00,VWS V14.01,2013-05-22 14:15:00,
2013-05-22 09:25:00,47.4,44.9,29.67,NNE,22,0.0,0.0,91,0.00,,OVC006,0.00,VWS V14.01,2013-05-22 14:25:00,
2013-05-22 09:30:00,47.6,44.8,29.68,NE,44,0.0,0.0,90,0.00,,OVC006,0.00,VWS V14.01,2013-05-22 14:30:00,
2013-05-22 09:35:00,47.6,44.8,29.68,NE,42,0.0,0.0,90,0.00,,OVC006,0.00,VWS V14.01,2013-05-22 14:35:00,
2013-05-22 09:45:00,47.7,44.6,29.68,ENE,73,0.0,0.0,89,0.00,,OVC006,0.00,VWS V14.01,2013-05-22 14:45:00,
2013-05-22 09:50:00,47.7,44.6,29.68,NE,49,0.0,0.0,89,0.00,,OVC006,0.00,VWS V14.01,2013-05-22 14:50:00,
2013-05-22 09:55:00,47.6,44.5,29.68,ENE,61,0.0,0.0,89,0.00,,OVC006,0.00,VWS V14.01,2013-05-22 14:55:00,
2013-05-22 10:00:00,47.6,44.5,29.68,NE,42,0.0,0.0,89,0.00,,OVC006,0.00,VWS V14.01,2013-05-22 15:00:00,
2013-05-22 10:05:00,47.6,44.5,29.68,ENE,61,0.0,0.0,89,0.00,,OVC008,0.00,VWS V14.01,2013-05-22 15:05:00,
2013-05-22 10:10:00,47.6,44.5,29.68,NNE,26,0.0,0.0,89,0.00,,OVC008,0.00,VWS V14.01,2013-05-22 15:10:00,
2013-05-22 10:20:00,47.7,44.6,29.69,NE,55,0.0,0.0,89,0.00,,OVC008,0.00,VWS V14.01,2013-05-22 15:20:00,
2013-05-22 10:25:00,47.7,44.6,29.69,North,9,0.0,0.0,89,0.00,,OVC008,0.00,VWS V14.01,2013-05-22 15:25:00,
2013-05-22 10:35:00,48.0,44.6,29.69,ENE,69,0.0,0.0,88,0.00,,OVC008,0.00,VWS V14.01,2013-05-22 15:35:00,
2013-05-22 10:40:00,48.2,44.8,29.69,ENE,67,0.0,0.0,88,0.00,,OVC008,0.00,VWS V14.01,2013-05-22 15:40:00,
2013-05-22 10:45:00,48.3,44.9,29.69,ENE,65,0.0,0.0,88,0.00,,OVC008,0.00,VWS V14.01,2013-05-22 15:45:00,
2013-05-22 10:50:00,48.6,45.2,29.69,ENE,78,0.0,0.0,88,0.01,,OVC008,0.01,VWS V14.01,2013-05-22 15:50:00,
2013-05-22 10:55:00,48.6,45.2,29.69,North,360,0.0,0.0,88,0.01,,OVC008,0.01,VWS V14.01,2013-05-22 15:55:00,
2013-05-22 11:00:00,48.6,45.5,29.69,ENE,62,0.0,0.0,89,0.01,,OVC008,0.01,VWS V14.01,2013-05-22 16:00:00,
2013-05-22 11:05:00,48.8,45.7,29.69,ENE,68,0.0,0.0,89,0.01,,-RA,0.01,VWS V14.01,2013-05-22 16:05:00,
2013-05-22 11:10:00,48.8,45.7,29.69,NE,55,0.0,0.0,89,0.01,,-RA,0.01,VWS V14.01,2013-05-22 16:10:00,
2013-05-22 11:15:00,48.9,45.8,29.70,ENE,69,0.0,0.0,89,0.01,,-RA,0.01,VWS V14.01,2013-05-22 16:15:00,
2013-05-22 11:20:00,49.1,46.0,29.70,NE,55,0.0,0.0,89,0.01,,-RA,0.01,VWS V14.01,2013-05-22 16:20:00,
2013-05-22 11:30:00,49.2,46.1,29.70,NE,51,0.0,0.0,89,0.01,,-RA,0.01,VWS V14.01,2013-05-22 16:30:00,
2013-05-22 11:40:00,49.5,46.4,29.70,NE,55,0.0,0.0,89,0.02,,-RA,0.02,VWS V14.01,2013-05-22 16:40:00,
2013-05-22 11:45:00,49.6,46.5,29.70,North,11,0.0,0.0,89,0.02,,-RA,0.02,VWS V14.01,2013-05-22 16:45:00,
2013-05-22 11:50:00,49.8,46.7,29.70,ENE,65,0.0,0.0,89,0.02,,-RA,0.02,VWS V14.01,2013-05-22 16:50:00,
2013-05-22 11:55:00,49.9,46.8,29.70,ENE,71,0.0,0.0,89,0.01,,-RA,0.02,VWS V14.01,2013-05-22 16:55:00,
2013-05-22 12:00:00,50.4,47.3,29.70,ENE,65,0.0,0.0,89,0.01,,-RA,0.02,VWS V14.01,2013-05-22 17:00:00,
2013-05-22 12:05:00,50.7,47.6,29.70,NE,52,0.0,0.0,89,0.01,,-RA,0.02,VWS V14.01,2013-05-22 17:05:00,
2013-05-22 12:15:00,50.7,47.3,29.70,NE,46,0.0,0.0,88,0.01,,-RA,0.02,VWS V14.01,2013-05-22 17:15:00,
2013-05-22 12:20:00,50.7,47.0,29.70,North,360,0.0,0.0,87,0.01,,-RA,0.02,VWS V14.01,2013-05-22 17:20:00,
2013-05-22 12:30:00,51.0,47.0,29.70,ENE,59,0.0,0.0,86,0.01,,-RA,0.02,VWS V14.01,2013-05-22 17:30:00,
2013-05-22 12:40:00,51.1,47.1,29.70,ENE,69,0.0,1.0,86,0.01,,-RA,0.02,VWS V14.01,2013-05-22 17:40:00,
2013-05-22 12:45:00,51.4,47.4,29.71,NNW,346,0.0,1.0,86,0.00,,-RA,0.02,VWS V14.01,2013-05-22 17:45:00,
2013-05-22 12:50:00,51.4,47.0,29.71,ENE,71,0.0,0.0,85,0.00,,-RA,0.02,VWS V14.01,2013-05-22 17:50:00,
2013-05-22 12:55:00,51.4,47.0,29.71,ENE,57,0.0,0.0,85,0.00,,-RA,0.02,VWS V14.01,2013-05-22 17:55:00,
2013-05-22 13:05:00,51.6,47.2,29.71,NE,35,0.0,0.0,85,0.00,,OVC012,0.02,VWS V14.01,2013-05-22 18:05:00,
2013-05-22 13:15:00,51.7,47.3,29.72,NNE,32,0.0,0.0,85,0.00,,OVC012,0.02,VWS V14.01,2013-05-22 18:15:00,
2013-05-22 13:20:00,51.7,47.0,29.72,NE,46,0.0,1.0,84,0.00,,OVC012,0.02,VWS V14.01,2013-05-22 18:20:00,
2013-05-22 13:25:00,51.7,47.0,29.72,North,355,0.0,0.0,84,0.00,,OVC012,0.02,VWS V14.01,2013-05-22 18:25:00,
2013-05-22 13:30:00,51.6,46.9,29.72,NNE,16,0.0,0.0,84,0.00,,OVC012,0.02,VWS V14.01,2013-05-22 18:30:00,
2013-05-22 13:35:00,51.6,46.9,29.72,NE,40,0.0,1.0,84,0.00,,OVC012,0.02,VWS V14.01,2013-05-22 18:35:00,
2013-05-22 13:40:00,51.6,46.9,29.72,ENE,58,0.0,1.0,84,0.00,,OVC012,0.02,VWS V14.01,2013-05-22 18:40:00,
2013-05-22 13:50:00,51.7,46.7,29.72,NNE,33,0.0,0.0,83,0.00,,OVC012,0.02,VWS V14.01,2013-05-22 18:50:00,
2013-05-22 13:55:00,51.7,46.7,29.72,NNE,26,0.0,1.0,83,0.00,,OVC012,0.02,VWS V14.01,2013-05-22 18:55:00,
2013-05-22 14:00:00,51.9,46.6,29.72,ENE,63,0.0,1.0,82,0.00,,OVC012,0.02,VWS V14.01,2013-05-22 19:00:00,
2013-05-22 14:05:00,52.0,46.7,29.72,ENE,63,0.0,0.0,82,0.00,,OVC014,0.02,VWS V14.01,2013-05-22 19:05:00,
2013-05-22 14:15:00,52.2,46.9,29.73,NE,46,0.0,1.0,82,0.00,,OVC014,0.02,VWS V14.01,2013-05-22 19:15:00,
2013-05-22 14:25:00,52.2,46.9,29.73,NE,45,0.0,0.0,82,0.00,,OVC014,0.02,VWS V14.01,2013-05-22 19:25:00,
2013-05-22 14:30:00,52.3,47.0,29.73,ENE,67,0.0,0.0,82,0.00,,OVC016,0.02,VWS V14.01,2013-05-22 19:30:00,
2013-05-22 14:35:00,52.5,47.2,29.73,NNE,22,0.0,0.0,82,0.00,,OVC016,0.02,VWS V14.01,2013-05-22 19:35:00,
2013-05-22 14:40:00,52.5,46.8,29.73,NE,40,0.0,1.0,81,0.00,,OVC016,0.02,VWS V14.01,2013-05-22 19:40:00,
2013-05-22 14:45:00,52.5,46.8,29.73,NNE,30,0.0,0.0,81,0.00,,OVC016,0.02,VWS V14.01,2013-05-22 19:45:00,
2013-05-22 14:50:00,52.5,46.8,29.73,ENE,61,0.0,1.0,81,0.00,,OVC016,0.02,VWS V14.01,2013-05-22 19:50:00,
2013-05-22 15:00:00,52.3,46.7,29.74,ENE,70,1.0,13.0,81,0.00,,OVC016,0.02,VWS V14.01,2013-05-22 20:00:00,
2013-05-22 15:05:00,52.3,46.7,29.74,NE,55,1.0,10.0,81,0.00,,-RA,0.02,VWS V14.01,2013-05-22 20:05:00,
2013-05-22 15:10:00,52.3,46.7,29.74,ENE,59,0.0,4.0,81,0.00,,-RA,0.02,VWS V14.01,2013-05-22 20:10:00,
2013-05-22 15:15:00,52.2,46.5,29.74,NE,45,0.0,10.0,81,0.00,,-RA,0.02,VWS V14.01,2013-05-22 20:15:00,
2013-05-22 15:20:00,52.3,47.0,29.74,NNW,346,0.0,1.0,82,0.00,,-RA,0.02,VWS V14.01,2013-05-22 20:20:00,
2013-05-22 15:25:00,52.3,47.0,29.74,North,5,0.0,9.0,82,0.00,,-RA,0.02,VWS V14.01,2013-05-22 20:25:00,
2013-05-22 15:30:00,52.3,47.0,29.75,ENE,62,0.0,0.0,82,0.00,,-RA,0.02,VWS V14.01,2013-05-22 20:30:00,
2013-05-22 15:35:00,52.3,47.0,29.75,ENE,74,0.0,1.0,82,0.00,,-RA,0.02,VWS V14.01,2013-05-22 20:35:00,
2013-05-22 15:40:00,52.2,46.5,29.75,NE,54,0.0,1.0,81,0.00,,-RA,0.02,VWS V14.01,2013-05-22 20:40:00,
2013-05-22 15:50:00,52.2,46.9,29.75,ENE,65,0.0,0.0,82,0.00,,-RA,0.02,VWS V14.01,2013-05-22 20:50:00,
2013-05-22 15:55:00,52.2,46.9,29.75,NE,40,0.0,1.0,82,0.00,,-RA,0.02,VWS V14.01,2013-05-22 20:55:00,
2013-05-22 16:05:00,52.0,46.7,29.75,NE,51,0.0,0.0,82,0.00,,-RA,0.02,VWS V14.01,2013-05-22 21:05:00,
2013-05-22 16:10:00,51.9,46.6,29.75,NE,55,0.0,1.0,82,0.00,,-RA,0.02,VWS V14.01,2013-05-22 21:10:00,
2013-05-22 16:15:00,51.9,46.6,29.76,ENE,73,0.0,0.0,82,0.00,,OVC016,0.02,VWS V14.01,2013-05-22 21:15:00,
2013-05-22 16:25:00,51.7,46.4,29.76,ENE,78,0.0,11.0,82,0.00,,OVC016,0.02,VWS V14.01,2013-05-22 21:25:00,
2013-05-22 16:35:00,51.7,46.4,29.76,NE,56,0.0,1.0,82,0.00,,OVC016,0.02,VWS V14.01,2013-05-22 21:35:00,
2013-05-22 16:40:00,52.0,46.7,29.76,ENE,63,0.0,1.0,82,0.00,,OVC016,0.02,VWS V14.01,2013-05-22 21:40:00,
2013-05-22 16:50:00,52.0,46.4,29.76,ENE,67,0.0,1.0,81,0.00,,OVC016,0.02,VWS V14.01,2013-05-22 21:50:00,
2013-05-22 17:00:00,51.7,46.4,29.77,ENE,65,0.0,1.0,82,0.00,,OVC016,0.02,VWS V14.01,2013-05-22 22:00:00,
2013-05-22 17:05:00,51.7,46.4,29.77,ENE,67,1.0,1.0,82,0.00,,OVC016,0.02,VWS V14.01,2013-05-22 22:05:00,
2013-05-22 17:10:00,51.7,46.4,29.77,ENE,68,2.0,12.0,82,0.00,,OVC016,0.02,VWS V14.01,2013-05-22 22:10:00,
2013-05-22 17:15:00,51.6,46.6,29.78,North,5,0.0,3.0,83,0.00,,OVC016,0.02,VWS V14.01,2013-05-22 22:15:00,
2013-05-22 17:20:00,51.6,46.6,29.78,NE,42,0.0,1.0,83,0.00,,OVC016,0.02,VWS V14.01,2013-05-22 22:20:00,
2013-05-22 17:25:00,51.6,46.6,29.78,ENE,57,0.0,0.0,83,0.00,,OVC016,0.02,VWS V14.01,2013-05-22 22:25:00,
2013-05-22 17:35:00,51.4,46.4,29.78,ENE,59,0.0,1.0,83,0.00,,OVC016,0.02,VWS V14.01,2013-05-22 22:35:00,
2013-05-22 17:40:00,51.3,46.3,29.78,ENE,66,0.0,1.0,83,0.00,,OVC016,0.02,VWS V14.01,2013-05-22 22:40:00,
2013-05-22 17:45:00,51.3,46.3,29.78,East,79,0.0,1.0,83,0.00,,OVC016,0.02,VWS V14.01,2013-05-22 22:45:00,
2013-05-22 17:50:00,51.3,46.3,29.78,NE,49,0.0,1.0,83,0.00,,OVC016,0.02,VWS V14.01,2013-05-22 22:50:00,
2013-05-22 17:55:00,51.3,46.3,29.78,NNE,21,0.0,0.0,83,0.00,,OVC016,0.02,VWS V14.01,2013-05-22 22:55:00,
2013-05-22 18:00:00,51.3,46.3,29.79,North,360,0.0,0.0,83,0.00,,OVC016,0.02,VWS V14.01,2013-05-22 23:00:00,
2013-05-22 18:05:00,51.1,46.1,29.79,NE,44,9.0,13.0,83,0.00,,OVC016,0.02,VWS V14.01,2013-05-22 23:05:00,
2013-05-22 18:15:00,51.0,46.0,29.80,NE,38,0.0,1.0,83,0.00,,OVC016,0.02,VWS V14.01,2013-05-22 23:15:00,
2013-05-22 18:20:00,51.0,46.0,29.80,NE,53,0.0,11.0,83,0.00,,OVC016,0.02,VWS V14.01,2013-05-22 23:20:00,
2013-05-22 18:30:00,51.0,46.0,29.80,NNE,30,0.0,0.0,83,0.00,,OVC016,0.02,VWS V14.01,2013-05-22 23:30:00,
2013-05-22 18:35:00,50.8,45.8,29.80,East,87,0.0,1.0,83,0.00,,OVC016,0.02,VWS V14.01,2013-05-22 23:35:00,
2013-05-22 18:40:00,50.7,45.7,29.80,ENE,63,0.0,1.0,83,0.00,,OVC016,0.02,VWS V14.01,2013-05-22 23:40:00,
2013-05-22 18:45:00,50.5,45.5,29.81,NE,48,2.0,15.0,83,0.00,,OVC016,0.02,VWS V14.01,2013-05-22 23:45:00,
2013-05-22 18:55:00,50.5,45.8,29.81,NE,40,0.0,12.0,84,0.00,,OVC016,0.02,VWS V14.01,2013-05-22 23:55:00,
2013-05-22 19:00:00,50.7,46.0,29.81,NNE,13,0.0,0.0,84,0.00,,OVC016,0.02,VWS V14.01,2013-05-23 00:00:00,
2013-05-22 19:05:00,50.5,46.2,29.81,NE,48,1.0,6.0,85,0.00,,OVC014,0.02,VWS V14.01,2013-05-23 00:05:00,
2013-05-22 19:10:00,50.4,46.1,29.81,ENE,68,0.0,7.0,85,0.00,,OVC014,0.02,VWS V14.01,2013-05-23 00:10:00,
2013-05-22 19:15:00,50.4,46.4,29.82,NE,45,3.0,17.0,86,0.00,,OVC014,0.02,VWS V14.01,2013-05-23 00:15:00,
2013-05-22 19:25:00,50.2,46.2,29.82,ENE,61,0.0,1.0,86,0.00,,OVC014,0.02,VWS V14.01,2013-05-23 00:25:00,
2013-05-22 19:30:00,50.1,46.4,29.83,ENE,64,0.0,1.0,87,0.00,,OVC014,0.02,VWS V14.01,2013-05-23 00:30:00,
2013-05-22 19:40:00,49.8,46.1,29.83,ENE,74,0.0,10.0,87,0.00,,OVC014,0.02,VWS V14.01,2013-05-23 00:40:00,
2013-05-22 19:45:00,49.6,46.2,29.83,ENE,61,0.0,1.0,88,0.01,,OVC014,0.03,VWS V14.01,2013-05-23 00:45:00,
2013-05-22 19:50:00,49.6,46.2,29.83,NE,43,0.0,0.0,88,0.01,,OVC014,0.03,VWS V14.01,2013-05-23 00:50:00,
2013-05-22 19:55:00,49.5,46.1,29.83,ENE,68,0.0,1.0,88,0.01,,OVC014,0.03,VWS V14.01,2013-05-23 00:55:00,
2013-05-22 20:00:00,49.5,46.1,29.83,NE,53,0.0,11.0,88,0.01,,OVC014,0.03,VWS V14.01,2013-05-23 01:00:00,
2013-05-22 20:05:00,49.5,46.4,29.83,ENE,57,0.0,7.0,89,0.01,,-RA,0.03,VWS V14.01,2013-05-23 01:05:00,
2013-05-22 20:10:00,49.5,46.4,29.83,NNW,346,0.0,0.0,89,0.01,,-RA,0.03,VWS V14.01,2013-05-23 01:10:00,
2013-05-22 20:15:00,49.5,46.4,29.83,NE,50,0.0,0.0,89,0.01,,-RA,0.03,VWS V14.01,2013-05-23 01:15:00,
2013-05-22 20:20:00,49.4,46.3,29.83,NE,53,0.0,0.0,89,0.01,,-RA,0.03,VWS V14.01,2013-05-23 01:20:00,
2013-05-22 20:25:00,49.4,46.3,29.83,ENE,62,0.0,0.0,89,0.02,,-RA,0.04,VWS V14.01,2013-05-23 01:25:00,
2013-05-22 20:30:00,49.4,46.3,29.84,NNE,20,0.0,0.0,89,0.02,,-RA,0.04,VWS V14.01,2013-05-23 01:30:00,
2013-05-22 20:35:00,49.2,46.1,29.84,NNE,13,0.0,0.0,89,0.02,,-RA,0.04,VWS V14.01,2013-05-23 01:35:00,
2013-05-22 20:40:00,49.2,46.1,29.84,NE,38,0.0,0.0,89,0.02,,-RA,0.04,VWS V14.01,2013-05-23 01:40:00,
2013-05-22 20:45:00,49.2,46.4,29.85,ENE,67,0.0,0.0,90,0.02,,-RA,0.04,VWS V14.01,2013-05-23 01:45:00,
2013-05-22 20:50:00,49.2,46.4,29.85,NNE,29,0.0,0.0,90,0.01,,-RA,0.04,VWS V14.01,2013-05-23 01:50:00,
2013-05-22 20:55:00,49.1,46.3,29.85,NE,54,0.0,0.0,90,0.01,,-RA,0.04,VWS V14.01,2013-05-23 01:55:00,
2013-05-22 21:00:00,49.1,46.3,29.86,NNE,14,0.0,0.0,90,0.01,,-RA,0.04,VWS V14.01,2013-05-23 02:00:00,
2013-05-22 21:10:00,49.1,46.3,29.86,NE,39,0.0,0.0,90,0.01,,-RA,0.04,VWS V14.01,2013-05-23 02:10:00,
2013-05-22 21:15:00,49.2,46.4,29.86,NE,41,0.0,0.0,90,0.01,,-RA,0.04,VWS V14.01,2013-05-23 02:15:00,
2013-05-22 21:20:00,49.4,46.6,29.86,NE,47,0.0,0.0,90,0.01,,-RA,0.04,VWS V14.01,2013-05-23 02:20:00,
2013-05-22 21:30:00,49.9,46.8,29.87,NE,45,0.0,1.0,89,0.00,,-RA,0.04,VWS V14.01,2013-05-23 02:30:00,
2013-05-22 21:40:00,50.5,46.5,29.87,NE,56,0.0,1.0,86,0.00,,-RA,0.04,VWS V14.01,2013-05-23 02:40:00,
2013-05-22 21:45:00,50.7,46.4,29.88,ENE,63,1.0,9.0,85,0.00,,-RA,0.04,VWS V14.01,2013-05-23 02:45:00,
2013-05-22 21:50:00,50.8,45.8,29.88,NE,36,0.0,12.0,83,0.00,,-RA,0.04,VWS V14.01,2013-05-23 02:50:00,
2013-05-22 21:55:00,51.0,45.4,29.88,NE,47,0.0,1.0,81,0.00,,-RA,0.04,VWS V14.01,2013-05-23 02:55:00,
2013-05-22 22:00:00,51.3,45.0,29.89,NE,34,0.0,1.0,79,0.00,,-RA,0.04,VWS V14.01,2013-05-23 03:00:00,
2013-05-22 22:05:00,51.4,44.4,29.89,ENE,65,0.0,0.0,77,0.00,,OVC047,0.04,VWS V14.01,2013-05-23 03:05:00,
2013-05-22 22:10:00,51.4,44.1,29.89,ENE,68,0.0,1.0,76,0.00,,OVC047,0.04,VWS V14.01,2013-05-23 03:10:00,
2013-05-22 22:15:00,51.6,44.0,29.89,ENE,65,6.0,14.0,75,0.00,,OVC047,0.04,VWS V14.01,2013-05-23 03:15:00,
2013-05-22 22:20:00,51.9,43.5,29.89,NE,54,0.0,13.0,73,0.00,,OVC047,0.04,VWS V14.01,2013-05-23 03:20:00,
2013-05-22 22:25:00,52.0,43.3,29.89,NE,48,0.0,1.0,72,0.00,,OVC047,0.04,VWS V14.01,2013-05-23 03:25:00,
2013-05-22 22:30:00,52.0,43.3,29.90,North,360,0.0,0.0,72,0.00,,OVC047,0.04,VWS V14.01,2013-05-23 03:30:00,
2013-05-22 22:35:00,52.0,43.3,29.90,ENE,69,0.0,1.0,72,0.00,,OVC047,0.04,VWS V14.01,2013-05-23 03:35:00,
2013-05-22 22:40:00,51.9,42.8,29.90,ENE,61,0.0,1.0,71,0.00,,OVC047,0.04,VWS V14.01,2013-05-23 03:40:00,
2013-05-22 22:45:00,51.9,43.2,29.91,NE,36,0.0,0.0,72,0.00,,OVC047,0.04,VWS V14.01,2013-05-23 03:45:00,
2013-05-22 22:50:00,51.7,43.0,29.91,North,351,0.0,0.0,72,0.00,,OVC047,0.04,VWS V14.01,2013-05-23 03:50:00,
2013-05-22 22:55:00,51.6,42.9,29.91,ENE,57,0.0,0.0,72,0.00,,OVC047,0.04,VWS V14.01,2013-05-23 03:55:00,
2013-05-22 23:00:00,51.4,43.0,29.92,ENE,60,0.0,0.0,73,0.00,,OVC047,0.04,VWS V14.01,2013-05-23 04:00:00,
2013-05-22 23:05:00,51.3,43.0,29.92,ENE,61,0.0,0.0,73,0.00,,OVC060,0.04,VWS V14.01,2013-05-23 04:05:00,
2013-05-22 23:10:00,51.1,42.8,29.92,ENE,76,0.0,0.0,73,0.00,,OVC060,0.04,VWS V14.01,2013-05-23 04:10:00,
2013-05-22 23:15:00,51.0,42.7,29.92,ENE,65,0.0,0.0,73,0.00,,OVC060,0.04,VWS V14.01,2013-05-23 04:15:00,
2013-05-22 23:20:00,51.0,42.7,29.92,ENE,66,0.0,0.0,73,0.00,,OVC060,0.04,VWS V14.01,2013-05-23 04:20:00,
2013-05-22 23:25:00,51.0,42.7,29.92,NNW,341,0.0,0.0,73,0.00,,OVC060,0.04,VWS V14.01,2013-05-23 04:25:00,
2013-05-22 23:30:00,50.8,42.8,29.92,North,360,0.0,0.0,74,0.00,,OVC060,0.04,VWS V14.01,2013-05-23 04:30:00,
2013-05-22 23:35:00,50.7,42.7,29.92,North,355,0.0,0.0,74,0.00,,OVC060,0.04,VWS V14.01,2013-05-23 04:35:00,
2013-05-22 23:40:00,50.4,42.4,29.92,ENE,76,0.0,0.0,74,0.00,,OVC060,0.04,VWS V14.01,2013-05-23 04:40:00,
2013-05-22 23:45:00,50.2,42.2,29.93,ENE,71,0.0,0.0,74,0.00,,OVC060,0.04,VWS V14.01,2013-05-23 04:45:00,
2013-05-22 23:50:00,50.1,42.2,29.93,ENE,65,0.0,0.0,74,0.00,,OVC060,0.04,VWS V14.01,2013-05-23 04:50:00,
2013-05-22 23:55:00,49.9,42.0,29.93,ENE,65,0.0,0.0,74,0.00,,OVC060,0.04,VWS V14.01,2013-05-23 04:55:00,